Flight Track Log - Related Links

Times and Time Zones

All times are in EDT time to prevent confusion due to time zone crossing. See the SKW6306 flight status page for this flight to view local times or setup timezone preferences in your user account.

Time Position Orientation Groundspeed Altitude Reporting Facility
EDT Latitude Longitude Course Direction KTS MPH feet Rate Location/Type
Mon 09:52:57 PM 39.9167 -104.6833 11° North 181 208 6,800  Level Denver TRACON
Mon 09:53:57 PM 39.9833 -104.6667 11° North 260 299 8,400 1,800 Climbing Denver TRACON
Mon 09:54:57 PM 40.0667 -104.6667 360° North 296 341 10,400 2,200 Climbing Denver TRACON
Mon 09:55:57 PM 40.1500 -104.6667 360° North 297 342 12,800 2,200 Climbing Denver TRACON
Mon 09:56:57 PM 40.2333 -104.6667 360° North 344 396 14,800 1,750 Climbing Denver TRACON
Mon 09:57:57 PM 40.3167 -104.7000 343° North 323 372 16,300 1,442 Climbing Denver TRACON
Mon 09:59:06 PM 40.4342 -104.7381 346° North 348 400 17,900 1,328 Climbing Denver Center
Mon 10:00:08 PM 40.5303 -104.7678 347° North 353 406 19,200 1,139 Climbing Denver Center
Mon 10:01:23 PM 40.6553 -104.8094 346° North 377 434 20,500 964 Climbing Denver Center
Mon 10:02:25 PM 40.7511 -104.8428 345° North 375 432 21,400 919 Climbing Denver Center
Mon 10:03:27 PM 40.8553 -104.8822 344° North 386 444 22,400 1,065 Climbing Denver Center
Mon 10:04:29 PM 40.9806 -104.9436 340° North 401 461 23,600 919 Climbing Denver Center
Mon 10:05:31 PM 41.0789 -104.9931 339° North 404 465 24,300 677 Climbing Denver Center
Mon 10:06:33 PM 41.1992 -105.0522 340° North 411 473 25,000 677 Climbing Denver Center
Mon 10:07:35 PM 41.3053 -105.1044 340° North 421 484 25,700 726 Climbing Denver Center
Mon 10:08:37 PM 41.4292 -105.1697 338° Northwest 426 490 26,500 726 Climbing Denver Center
Mon 10:09:39 PM 41.5369 -105.2222 340° North 430 495 27,200 780 Climbing Denver Center
Mon 10:10:40 PM 41.6442 -105.3247 324° Northwest 429 494 28,100 711 Climbing Denver Center
Mon 10:11:54 PM 41.7297 -105.4231 319° Northwest 424 488 28,800 788 Climbing Denver Center
Mon 10:12:57 PM 41.8442 -105.5533 320° Northwest 425 489 29,900 864 Climbing Denver Center
Mon 10:13:59 PM 41.9292 -105.6528 319° Northwest 424 488 30,600 677 Climbing Denver Center
Mon 10:15:01 PM 42.0264 -105.7678 319° Northwest 417 480 31,300 683 Climbing Denver Center
Mon 10:16:02 PM 42.1106 -105.8656 319° Northwest 416 479 32,000 341 Climbing Denver Center
Mon 10:17:04 PM 42.1947 -105.9650 319° Northwest 416 479 32,000  Level Denver Center
Mon 10:18:06 PM 42.2967 -106.0853 319° Northwest 429 494 32,000  Level Denver Center
Mon 10:19:08 PM 42.3836 -106.1903 318° Northwest 436 502 32,000  Level Denver Center
Mon 10:20:10 PM 42.4894 -106.3158 319° Northwest 449 517 32,000  Level Denver Center
Mon 10:21:12 PM 42.5792 -106.4239 318° Northwest 451 519 32,000  Level Denver Center
Mon 10:22:14 PM 42.6833 -106.5486 319° Northwest 446 513 32,000  Level Denver Center
Mon 10:23:16 PM 42.7733 -106.6558 319° Northwest 449 517 32,000  Level Denver Center
Mon 10:24:18 PM 42.8767 -106.7831 318° Northwest 448 516 32,000  Level Denver Center
Mon 10:25:39 PM 42.9939 -106.9283 318° Northwest 443 510 32,000  Level Salt Lake Center
Mon 10:26:40 PM 43.0944 -107.0500 319° Northwest 440 506 32,000  Level Salt Lake Center
Mon 10:27:42 PM 43.1817 -107.1594 318° Northwest 442 509 32,000  Level Salt Lake Center
Mon 10:28:44 PM 43.2689 -107.2661 318° Northwest 438 504 32,000  Level Salt Lake Center
Mon 10:29:46 PM 43.3703 -107.3936 318° Northwest 440 506 32,000  Level Salt Lake Center
Mon 10:30:47 PM 43.4575 -107.5019 318° Northwest 441 507 32,000  Level Salt Lake Center
Mon 10:31:49 PM 43.5589 -107.6292 318° Northwest 440 506 32,000 -677 Level Salt Lake Center
Mon 10:32:51 PM 43.6469 -107.7411 317° Northwest 447 514 30,600 -2,195 Descending Salt Lake Center
Mon 10:33:52 PM 43.7544 -107.8764 318° Northwest 464 534 27,500 -2,878 Descending Salt Lake Center
Mon 10:34:54 PM 43.8425 -107.9858 318° Northwest 442 509 24,700 -2,468 Descending Salt Lake Center
Mon 10:35:56 PM 43.9222 -108.0914 316° Northwest 421 484 22,400 -2,419 Descending Salt Lake Center
Mon 10:36:58 PM 44.0211 -108.2192 317° Northwest 430 495 19,700 -2,390 Descending Salt Lake Center
Mon 10:37:59 PM 44.1042 -108.3253 317° Northwest 428 493 17,500 -2,390 Descending Salt Lake Center
Mon 10:39:01 PM 44.1956 -108.4433 317° Northwest 415 478 14,800 -2,177 Descending Salt Lake Center
Mon 10:40:03 PM 44.2722 -108.5425 317° Northwest 404 465 13,000 -1,645 Descending Salt Lake Center
Mon 10:41:05 PM 44.3486 -108.6414 317° Northwest 395 455 11,400 -1,463 Descending Salt Lake Center
Mon 10:42:06 PM 44.4353 -108.7539 317° Northwest 389 448 10,000 -683 Descending Salt Lake Center
Mon 10:43:08 PM 44.4878 -108.8228 317° Northwest 315 362 10,000  Level Salt Lake Center
Mon 10:44:10 PM 44.5353 -108.8856 317° Northwest 244 281 10,000 -677 Level Salt Lake Center
Mon 10:45:12 PM 44.5753 -108.9192 329° Northwest 203 234 8,600 -1,317 Descending Salt Lake Center
Mon 10:46:13 PM 44.6061 -108.9542 321° Northwest 185 213 7,300 -1,024 Descending Salt Lake Center
Mon 10:47:15 PM 44.5639 -108.9686 194° South 170 196 6,500 -1,016 Descending Salt Lake Center
Mon 10:48:17 PM 44.5331 -109.0058 221° Southwest 169 194 5,200 -1,258 Descending Salt Lake Center
Mon 10:50:00 PM 44.5167 -109.0167 245° Southwest  Level FlightAware Approximate
Mon 10:57:00 PM 44.5202 -109.0238 245° Southwest  Level Estimated

Login

Don't have an account? Register now (free) for customized features, flight alerts, and more!